sensor_id;sensor_type;location;lat;lon;timestamp;pressure;altitude;pressure_sealevel;temperature;humidity
41636;BME280;27623;51.966;4.602;2022-12-29T00:01:37;64469.53;;;11.03;100.00
41636;BME280;27623;51.966;4.602;2022-12-29T00:04:03;64506.69;;;11.02;100.00
41636;BME280;27623;51.966;4.602;2022-12-29T00:06:29;64484.69;;;11.00;100.00
41636;BME280;27623;51.966;4.602;2022-12-29T00:08:55;64516.00;;;10.96;100.00
41636;BME280;27623;51.966;4.602;2022-12-29T00:11:24;64533.28;;;11.03;100.00
41636;BME280;27623;51.966;4.602;2022-12-29T00:13:50;64505.78;;;11.03;100.00
41636;BME280;27623;51.966;4.602;2022-12-29T00:16:35;64488.31;;;11.16;100.00
41636;BME280;27623;51.966;4.602;2022-12-29T00:19:01;64534.38;;;11.11;100.00
41636;BME280;27623;51.966;4.602;2022-12-29T00:21:27;64493.59;;;11.04;100.00
41636;BME280;27623;51.966;4.602;2022-12-29T00:24:17;64533.28;;;11.10;100.00
41636;BME280;27623;51.966;4.602;2022-12-29T00:29:42;64499.06;;;11.09;100.00
41636;BME280;27623;51.966;4.602;2022-12-29T00:32:26;64537.84;;;11.17;100.00
41636;BME280;27623;51.966;4.602;2022-12-29T00:35:13;64540.59;;;11.19;100.00
41636;BME280;27623;51.966;4.602;2022-12-29T00:37:44;64517.44;;;11.10;100.00
41636;BME280;27623;51.966;4.602;2022-12-29T00:40:29;64557.16;;;11.01;100.00
41636;BME280;27623;51.966;4.602;2022-12-29T00:43:14;64504.88;;;10.91;100.00
41636;BME280;27623;51.966;4.602;2022-12-29T00:45:57;64483.56;;;10.85;100.00
41636;BME280;27623;51.966;4.602;2022-12-29T00:48:23;64473.19;;;10.90;100.00
41636;BME280;27623;51.966;4.602;2022-12-29T00:51:07;64471.56;;;10.81;100.00
41636;BME280;27623;51.966;4.602;2022-12-29T00:53:34;64464.84;;;10.80;100.00
41636;BME280;27623;51.966;4.602;2022-12-29T00:55:59;64434.78;;;10.73;100.00
41636;BME280;27623;51.966;4.602;2022-12-29T00:58:28;64473.94;;;10.72;100.00
41636;BME280;27623;51.966;4.602;2022-12-29T01:01:04;64437.53;;;10.61;100.00
41636;BME280;27623;51.966;4.602;2022-12-29T01:03:30;64437.91;;;10.59;100.00
41636;BME280;27623;51.966;4.602;2022-12-29T01:05:56;64468.84;;;10.50;100.00
41636;BME280;27623;51.966;4.602;2022-12-29T01:08:21;64445.34;;;10.43;100.00
41636;BME280;27623;51.966;4.602;2022-12-29T01:11:00;64426.78;;;10.40;100.00
41636;BME280;27623;51.966;4.602;2022-12-29T01:13:26;64461.38;;;10.39;100.00
41636;BME280;27623;51.966;4.602;2022-12-29T01:15:52;64449.91;;;10.49;100.00
41636;BME280;27623;51.966;4.602;2022-12-29T01:18:18;64435.53;;;10.48;100.00
41636;BME280;27623;51.966;4.602;2022-12-29T01:20:43;64452.25;;;10.40;100.00
41636;BME280;27623;51.966;4.602;2022-12-29T01:23:09;64436.44;;;10.39;100.00
41636;BME280;27623;51.966;4.602;2022-12-29T01:25:35;64435.34;;;10.45;100.00
41636;BME280;27623;51.966;4.602;2022-12-29T01:28:01;64431.88;;;10.47;100.00
41636;BME280;27623;51.966;4.602;2022-12-29T01:30:27;64455.91;;;10.48;100.00
41636;BME280;27623;51.966;4.602;2022-12-29T01:32:52;64444.09;;;10.53;100.00
41636;BME280;27623;51.966;4.602;2022-12-29T01:35:18;64443.00;;;10.52;100.00
41636;BME280;27623;51.966;4.602;2022-12-29T01:37:43;64416.97;;;10.52;100.00
41636;BME280;27623;51.966;4.602;2022-12-29T01:40:10;64473.56;;;10.52;100.00
41636;BME280;27623;51.966;4.602;2022-12-29T01:42:37;64441.00;;;10.53;100.00
41636;BME280;27623;51.966;4.602;2022-12-29T01:45:16;64458.28;;;10.52;100.00
41636;BME280;27623;51.966;4.602;2022-12-29T01:47:55;64468.28;;;10.57;100.00
41636;BME280;27623;51.966;4.602;2022-12-29T01:50:32;64447.91;;;10.57;100.00
41636;BME280;27623;51.966;4.602;2022-12-29T01:53:05;64451.00;;;10.57;100.00
41636;BME280;27623;51.966;4.602;2022-12-29T01:55:36;64471.03;;;10.52;100.00
41636;BME280;27623;51.966;4.602;2022-12-29T01:58:04;64434.44;;;10.54;100.00
41636;BME280;27623;51.966;4.602;2022-12-29T02:00:32;64455.19;;;10.52;100.00
41636;BME280;27623;51.966;4.602;2022-12-29T02:02:57;64444.25;;;10.49;100.00
41636;BME280;27623;51.966;4.602;2022-12-29T02:05:27;64441.91;;;10.44;100.00
41636;BME280;27623;51.966;4.602;2022-12-29T02:07:56;64457.72;;;10.45;100.00
41636;BME280;27623;51.966;4.602;2022-12-29T02:10:23;64440.63;;;10.41;100.00
41636;BME280;27623;51.966;4.602;2022-12-29T02:12:50;64435.88;;;10.46;100.00
41636;BME280;27623;51.966;4.602;2022-12-29T02:15:16;64452.09;;;10.44;100.00
41636;BME280;27623;51.966;4.602;2022-12-29T02:20:31;64428.63;;;10.51;100.00
41636;BME280;27623;51.966;4.602;2022-12-29T02:25:53;64410.59;;;10.41;100.00
41636;BME280;27623;51.966;4.602;2022-12-29T02:31:31;64459.38;;;10.39;100.00
41636;BME280;27623;51.966;4.602;2022-12-29T02:35:18;64424.59;;;10.45;100.00
41636;BME280;27623;51.966;4.602;2022-12-29T02:37:47;64446.81;;;10.49;100.00
41636;BME280;27623;51.966;4.602;2022-12-29T02:40:51;64481.38;;;10.62;100.00
41636;BME280;27623;51.966;4.602;2022-12-29T02:43:34;64453.72;;;10.53;100.00
41636;BME280;27623;51.966;4.602;2022-12-29T02:46:11;64434.97;;;10.61;100.00
41636;BME280;27623;51.966;4.602;2022-12-29T02:48:46;64444.44;;;10.51;100.00
41636;BME280;27623;51.966;4.602;2022-12-29T02:51:18;64440.09;;;10.54;100.00
41636;BME280;27623;51.966;4.602;2022-12-29T02:53:45;64450.66;;;10.59;100.00
41636;BME280;27623;51.966;4.602;2022-12-29T02:56:30;64408.41;;;10.53;100.00
41636;BME280;27623;51.966;4.602;2022-12-29T02:58:55;64447.34;;;10.49;100.00
41636;BME280;27623;51.966;4.602;2022-12-29T03:09:56;64432.06;;;10.42;100.00
41636;BME280;27623;51.966;4.602;2022-12-29T03:13:04;64406.78;;;10.45;100.00
41636;BME280;27623;51.966;4.602;2022-12-29T03:15:56;64406.78;;;10.52;100.00
41636;BME280;27623;51.966;4.602;2022-12-29T03:18:55;64495.75;;;10.49;100.00
41636;BME280;27623;51.966;4.602;2022-12-29T03:21:43;64436.44;;;10.53;100.00
41636;BME280;27623;51.966;4.602;2022-12-29T03:24:32;64422.63;;;10.52;100.00
41636;BME280;27623;51.966;4.602;2022-12-29T03:27:02;64426.25;;;10.46;100.00
41636;BME280;27623;51.966;4.602;2022-12-29T03:29:31;64399.88;;;10.48;100.00
41636;BME280;27623;51.966;4.602;2022-12-29T03:31:59;64434.44;;;10.32;100.00
41636;BME280;27623;51.966;4.602;2022-12-29T03:34:27;64463.38;;;10.45;100.00
41636;BME280;27623;51.966;4.602;2022-12-29T03:37:00;64433.53;;;10.41;100.00
41636;BME280;27623;51.966;4.602;2022-12-29T03:39:29;64422.06;;;10.45;100.00
41636;BME280;27623;51.966;4.602;2022-12-29T03:42:00;64435.16;;;10.50;100.00
41636;BME280;27623;51.966;4.602;2022-12-29T03:44:38;64426.78;;;10.47;100.00
41636;BME280;27623;51.966;4.602;2022-12-29T03:47:06;64442.63;;;10.47;100.00
41636;BME280;27623;51.966;4.602;2022-12-29T03:49:32;64435.16;;;10.43;100.00
41636;BME280;27623;51.966;4.602;2022-12-29T03:51:57;64463.19;;;10.50;100.00
41636;BME280;27623;51.966;4.602;2022-12-29T03:54:23;64448.63;;;10.46;100.00
41636;BME280;27623;51.966;4.602;2022-12-29T03:56:48;64430.25;;;10.45;100.00
41636;BME280;27623;51.966;4.602;2022-12-29T03:59:14;64430.44;;;10.48;100.00
41636;BME280;27623;51.966;4.602;2022-12-29T04:01:39;64471.22;;;10.55;100.00
41636;BME280;27623;51.966;4.602;2022-12-29T04:04:05;64421.16;;;10.46;100.00
41636;BME280;27623;51.966;4.602;2022-12-29T04:06:31;64418.78;;;10.42;100.00
41636;BME280;27623;51.966;4.602;2022-12-29T04:08:57;64431.16;;;10.37;100.00
41636;BME280;27623;51.966;4.602;2022-12-29T04:11:22;64444.47;;;10.37;100.00
41636;BME280;27623;51.966;4.602;2022-12-29T04:13:48;64397.88;;;10.27;100.00
41636;BME280;27623;51.966;4.602;2022-12-29T04:16:13;64429.34;;;10.40;100.00
41636;BME280;27623;51.966;4.602;2022-12-29T04:18:39;64398.59;;;10.30;100.00
41636;BME280;27623;51.966;4.602;2022-12-29T04:21:05;64410.97;;;10.32;100.00
41636;BME280;27623;51.966;4.602;2022-12-29T04:23:34;64397.31;;;10.19;100.00
41636;BME280;27623;51.966;4.602;2022-12-29T04:26:00;64387.31;;;10.08;100.00
41636;BME280;27623;51.966;4.602;2022-12-29T04:28:26;64376.19;;;10.02;100.00
41636;BME280;27623;51.966;4.602;2022-12-29T04:30:53;64401.47;;;9.92;100.00
41636;BME280;27623;51.966;4.602;2022-12-29T04:33:19;64368.75;;;9.83;100.00
41636;BME280;27623;51.966;4.602;2022-12-29T04:35:44;64334.75;;;9.78;100.00
41636;BME280;27623;51.966;4.602;2022-12-29T04:38:10;64362.56;;;9.82;100.00
41636;BME280;27623;51.966;4.602;2022-12-29T04:40:38;64354.19;;;9.79;100.00
41636;BME280;27623;51.966;4.602;2022-12-29T04:43:04;64363.66;;;9.76;100.00
41636;BME280;27623;51.966;4.602;2022-12-29T04:45:29;64314.78;;;9.69;100.00
41636;BME280;27623;51.966;4.602;2022-12-29T04:47:55;64366.00;;;9.67;100.00
41636;BME280;27623;51.966;4.602;2022-12-29T04:50:20;64360.94;;;9.81;100.00
41636;BME280;27623;51.966;4.602;2022-12-29T04:52:46;64321.13;;;9.79;100.00
41636;BME280;27623;51.966;4.602;2022-12-29T04:55:12;64327.66;;;9.78;100.00
41636;BME280;27623;51.966;4.602;2022-12-29T04:57:38;64380.56;;;9.92;100.00
41636;BME280;27623;51.966;4.602;2022-12-29T05:00:06;64367.84;;;9.92;100.00
41636;BME280;27623;51.966;4.602;2022-12-29T05:02:32;64381.84;;;9.88;100.00
41636;BME280;27623;51.966;4.602;2022-12-29T05:04:57;64381.66;;;10.00;100.00
41636;BME280;27623;51.966;4.602;2022-12-29T05:07:24;64368.00;;;9.80;100.00
41636;BME280;27623;51.966;4.602;2022-12-29T05:09:50;64351.09;;;9.79;100.00
41636;BME280;27623;51.966;4.602;2022-12-29T05:12:16;64370.03;;;9.73;100.00
41636;BME280;27623;51.966;4.602;2022-12-29T05:14:41;64356.38;;;9.67;100.00
41636;BME280;27623;51.966;4.602;2022-12-29T05:17:07;64359.28;;;9.72;100.00
41636;BME280;27623;51.966;4.602;2022-12-29T05:19:33;64414.34;;;9.67;100.00
41636;BME280;27623;51.966;4.602;2022-12-29T05:21:58;64343.09;;;9.59;100.00
41636;BME280;27623;51.966;4.602;2022-12-29T05:24:24;64337.66;;;9.61;100.00
41636;BME280;27623;51.966;4.602;2022-12-29T05:26:50;64313.13;;;9.53;100.00
41636;BME280;27623;51.966;4.602;2022-12-29T05:29:15;64356.38;;;9.60;100.00
41636;BME280;27623;51.966;4.602;2022-12-29T05:31:40;64299.69;;;9.64;100.00
41636;BME280;27623;51.966;4.602;2022-12-29T05:34:06;64357.09;;;9.63;100.00
41636;BME280;27623;51.966;4.602;2022-12-29T05:36:31;64358.38;;;9.67;100.00
41636;BME280;27623;51.966;4.602;2022-12-29T05:38:57;64313.13;;;9.67;100.00
41636;BME280;27623;51.966;4.602;2022-12-29T05:41:22;64325.66;;;9.57;100.00
41636;BME280;27623;51.966;4.602;2022-12-29T05:43:48;64327.66;;;9.57;100.00
41636;BME280;27623;51.966;4.602;2022-12-29T05:46:14;64286.25;;;9.54;100.00
41636;BME280;27623;51.966;4.602;2022-12-29T05:48:42;64289.31;;;9.47;100.00
41636;BME280;27623;51.966;4.602;2022-12-29T05:51:07;64321.84;;;9.47;100.00
41636;BME280;27623;51.966;4.602;2022-12-29T05:53:33;64326.03;;;9.48;100.00
41636;BME280;27623;51.966;4.602;2022-12-29T05:55:59;64297.13;;;9.50;100.00
41636;BME280;27623;51.966;4.602;2022-12-29T05:58:24;64319.13;;;9.65;100.00
41636;BME280;27623;51.966;4.602;2022-12-29T06:00:50;64302.59;;;9.48;100.00
41636;BME280;27623;51.966;4.602;2022-12-29T06:03:16;64307.31;;;9.50;100.00
41636;BME280;27623;51.966;4.602;2022-12-29T06:05:44;64312.94;;;9.43;100.00
41636;BME280;27623;51.966;4.602;2022-12-29T06:08:10;64321.31;;;9.46;100.00
41636;BME280;27623;51.966;4.602;2022-12-29T06:10:36;64345.66;;;9.52;100.00
41636;BME280;27623;51.966;4.602;2022-12-29T06:13:02;64302.78;;;9.50;100.00
41636;BME280;27623;51.966;4.602;2022-12-29T06:15:28;64286.41;;;9.42;100.00
41636;BME280;27623;51.966;4.602;2022-12-29T06:17:54;64286.41;;;9.49;100.00
41636;BME280;27623;51.966;4.602;2022-12-29T06:20:20;64355.28;;;9.52;100.00
41636;BME280;27623;51.966;4.602;2022-12-29T06:22:46;64282.25;;;9.41;100.00
41636;BME280;27623;51.966;4.602;2022-12-29T06:25:12;64298.59;;;9.42;100.00
41636;BME280;27623;51.966;4.602;2022-12-29T06:27:38;64335.09;;;9.47;100.00
41636;BME280;27623;51.966;4.602;2022-12-29T06:30:04;64332.56;;;9.47;100.00
41636;BME280;27623;51.966;4.602;2022-12-29T06:32:29;64333.13;;;9.62;100.00
41636;BME280;27623;51.966;4.602;2022-12-29T06:34:55;64371.28;;;9.69;100.00
41636;BME280;27623;51.966;4.602;2022-12-29T06:37:21;64354.19;;;9.65;100.00
41636;BME280;27623;51.966;4.602;2022-12-29T06:39:47;64340.00;;;9.59;100.00
41636;BME280;27623;51.966;4.602;2022-12-29T06:42:13;64348.38;;;9.62;100.00
41636;BME280;27623;51.966;4.602;2022-12-29T06:44:38;64323.31;;;9.53;100.00
41636;BME280;27623;51.966;4.602;2022-12-29T06:47:04;64296.41;;;9.47;100.00
41636;BME280;27623;51.966;4.602;2022-12-29T06:49:29;64301.50;;;9.40;100.00
41636;BME280;27623;51.966;4.602;2022-12-29T06:51:55;64328.94;;;9.53;100.00
41636;BME280;27623;51.966;4.602;2022-12-29T06:54:23;64305.69;;;9.34;100.00
41636;BME280;27623;51.966;4.602;2022-12-29T06:56:49;64340.19;;;9.47;100.00
41636;BME280;27623;51.966;4.602;2022-12-29T06:59:15;64316.41;;;9.35;100.00
41636;BME280;27623;51.966;4.602;2022-12-29T07:01:41;64321.09;;;9.22;100.00
41636;BME280;27623;51.966;4.602;2022-12-29T07:04:07;64303.47;;;9.25;100.00
41636;BME280;27623;51.966;4.602;2022-12-29T07:06:32;64278.03;;;9.18;100.00
41636;BME280;27623;51.966;4.602;2022-12-29T07:08:58;64268.78;;;9.23;100.00
41636;BME280;27623;51.966;4.602;2022-12-29T07:11:24;64275.88;;;9.30;100.00
41636;BME280;27623;51.966;4.602;2022-12-29T07:13:50;64263.72;;;9.09;100.00
41636;BME280;27623;51.966;4.602;2022-12-29T07:16:16;64291.66;;;9.16;100.00
41636;BME280;27623;51.966;4.602;2022-12-29T07:18:42;64303.47;;;9.25;100.00
41636;BME280;27623;51.966;4.602;2022-12-29T07:21:07;64293.50;;;9.20;100.00
41636;BME280;27623;51.966;4.602;2022-12-29T07:23:33;64283.31;;;9.20;100.00
41636;BME280;27623;51.966;4.602;2022-12-29T07:26:02;64294.56;;;9.21;100.00
41636;BME280;27623;51.966;4.602;2022-12-29T07:28:28;64283.50;;;9.23;100.00
41636;BME280;27623;51.966;4.602;2022-12-29T07:30:54;64289.31;;;9.33;100.00
41636;BME280;27623;51.966;4.602;2022-12-29T07:33:20;64294.41;;;9.33;100.00
41636;BME280;27623;51.966;4.602;2022-12-29T07:35:46;64267.53;;;9.34;100.00
41636;BME280;27623;51.966;4.602;2022-12-29T07:38:11;64299.69;;;9.28;100.00
41636;BME280;27623;51.966;4.602;2022-12-29T07:40:37;64280.78;;;9.27;100.00
41636;BME280;27623;51.966;4.602;2022-12-29T07:43:02;64326.56;;;9.35;100.00
41636;BME280;27623;51.966;4.602;2022-12-29T07:45:29;64316.41;;;9.35;100.00
41636;BME280;27623;51.966;4.602;2022-12-29T07:47:55;64327.47;;;9.40;100.00
41636;BME280;27623;51.966;4.602;2022-12-29T07:50:21;64315.31;;;9.34;100.00
41636;BME280;27623;51.966;4.602;2022-12-29T07:52:47;64314.22;;;9.33;100.00
41636;BME280;27623;51.966;4.602;2022-12-29T07:55:16;64285.31;;;9.41;100.00
41636;BME280;27623;51.966;4.602;2022-12-29T07:57:41;64301.50;;;9.40;100.00
41636;BME280;27623;51.966;4.602;2022-12-29T08:00:09;64304.03;;;9.40;100.00
41636;BME280;27623;51.966;4.602;2022-12-29T08:02:35;64348.91;;;9.48;100.00
41636;BME280;27623;51.966;4.602;2022-12-29T08:05:00;64323.66;;;9.51;100.00
41636;BME280;27623;51.966;4.602;2022-12-29T08:07:26;64282.97;;;9.51;100.00
41636;BME280;27623;51.966;4.602;2022-12-29T08:09:52;64324.22;;;9.51;100.00
41636;BME280;27623;51.966;4.602;2022-12-29T08:12:18;64343.84;;;9.55;100.00
41636;BME280;27623;51.966;4.602;2022-12-29T08:14:43;64331.13;;;9.55;100.00
41636;BME280;27623;51.966;4.602;2022-12-29T08:17:09;64300.94;;;9.60;100.00
41636;BME280;27623;51.966;4.602;2022-12-29T08:19:35;64331.47;;;9.60;100.00
41636;BME280;27623;51.966;4.602;2022-12-29T08:22:01;64304.41;;;9.52;100.00
41636;BME280;27623;51.966;4.602;2022-12-29T08:24:26;64306.59;;;9.47;100.00
41636;BME280;27623;51.966;4.602;2022-12-29T08:26:52;64335.28;;;9.57;100.00
41636;BME280;27623;51.966;4.602;2022-12-29T08:29:17;64311.13;;;9.39;100.00
41636;BME280;27623;51.966;4.602;2022-12-29T08:31:43;64313.84;;;9.35;100.00
41636;BME280;27623;51.966;4.602;2022-12-29T08:34:08;64340.72;;;9.41;100.00
41636;BME280;27623;51.966;4.602;2022-12-29T08:36:34;64302.41;;;9.31;100.00
41636;BME280;27623;51.966;4.602;2022-12-29T08:39:00;64271.34;;;9.30;100.00
41636;BME280;27623;51.966;4.602;2022-12-29T08:41:25;64295.13;;;9.22;100.00
41636;BME280;27623;51.966;4.602;2022-12-29T08:43:51;64296.03;;;9.27;100.00
41636;BME280;27623;51.966;4.602;2022-12-29T08:46:17;64294.22;;;9.16;100.00
41636;BME280;27623;51.966;4.602;2022-12-29T08:48:42;64290.75;;;9.04;100.00
41636;BME280;27623;51.966;4.602;2022-12-29T08:51:08;64286.75;;;9.05;100.00
41636;BME280;27623;51.966;4.602;2022-12-29T08:53:34;64265.34;;;9.11;100.00
41636;BME280;27623;51.966;4.602;2022-12-29T08:56:00;64265.53;;;9.06;100.00
41636;BME280;27623;51.966;4.602;2022-12-29T08:58:26;64271.69;;;9.07;100.00
41636;BME280;27623;51.966;4.602;2022-12-29T09:00:53;64277.31;;;9.01;100.00
41636;BME280;27623;51.966;4.602;2022-12-29T09:03:19;64197.63;;;8.81;100.00
41636;BME280;27623;51.966;4.602;2022-12-29T09:05:48;64251.72;;;8.91;100.00
41636;BME280;27623;51.966;4.602;2022-12-29T09:08:14;64261.16;;;8.95;100.00
41636;BME280;27623;51.966;4.602;2022-12-29T09:10:39;64274.22;;;8.86;100.00
41636;BME280;27623;51.966;4.602;2022-12-29T09:13:05;64231.19;;;8.88;100.00
41636;BME280;27623;51.966;4.602;2022-12-29T09:15:30;64257.16;;;8.96;100.00
41636;BME280;27623;51.966;4.602;2022-12-29T09:17:56;64276.41;;;9.09;100.00
41636;BME280;27623;51.966;4.602;2022-12-29T09:20:21;64289.66;;;9.03;100.00
41636;BME280;27623;51.966;4.602;2022-12-29T09:22:47;64288.03;;;9.08;100.00
41636;BME280;27623;51.966;4.602;2022-12-29T09:25:13;64261.34;;;9.05;100.00
41636;BME280;27623;51.966;4.602;2022-12-29T09:27:39;64301.84;;;9.09;100.00
41636;BME280;27623;51.966;4.602;2022-12-29T09:30:08;64267.16;;;9.01;100.00
41636;BME280;27623;51.966;4.602;2022-12-29T09:32:35;64257.34;;;9.06;100.00
41636;BME280;27623;51.966;4.602;2022-12-29T09:35:01;64262.06;;;9.01;100.00
41636;BME280;27623;51.966;4.602;2022-12-29T09:37:27;64281.13;;;9.18;100.00
41636;BME280;27623;51.966;4.602;2022-12-29T09:39:53;64274.41;;;9.17;100.00
41636;BME280;27623;51.966;4.602;2022-12-29T09:45:44;64258.63;;;9.16;100.00
41636;BME280;27623;51.966;4.602;2022-12-29T09:48:20;64320.19;;;9.24;100.00
41636;BME280;27623;51.966;4.602;2022-12-29T09:50:52;64275.16;;;9.20;100.00
41636;BME280;27623;51.966;4.602;2022-12-29T09:55:55;64317.66;;;9.38;100.00
41636;BME280;27623;51.966;4.602;2022-12-29T09:58:26;64283.69;;;9.33;100.00
41636;BME280;27623;51.966;4.602;2022-12-29T10:01:18;64308.59;;;9.46;100.00
41636;BME280;27623;51.966;4.602;2022-12-29T10:03:52;64295.50;;;9.34;100.00
41636;BME280;27623;51.966;4.602;2022-12-29T10:09:20;64309.47;;;9.30;100.00
41636;BME280;27623;51.966;4.602;2022-12-29T10:14:58;64258.09;;;9.23;100.00
41636;BME280;27623;51.966;4.602;2022-12-29T10:17:49;64287.88;;;9.27;100.00
41636;BME280;27623;51.966;4.602;2022-12-29T10:25:48;64307.50;;;9.45;100.00
41636;BME280;27623;51.966;4.602;2022-12-29T10:28:19;64299.50;;;9.40;100.00
41636;BME280;27623;51.966;4.602;2022-12-29T10:30:47;64328.59;;;9.55;100.00
41636;BME280;27623;51.966;4.602;2022-12-29T10:33:18;64318.59;;;9.51;100.00
41636;BME280;27623;51.966;4.602;2022-12-29T10:35:46;64361.47;;;9.53;100.00
41636;BME280;27623;51.966;4.602;2022-12-29T10:40:57;64318.22;;;9.81;100.00
41636;BME280;27623;51.966;4.602;2022-12-29T10:43:25;64367.47;;;9.87;100.00
41636;BME280;27623;51.966;4.602;2022-12-29T10:45:57;64395.66;;;9.96;100.00
41636;BME280;27623;51.966;4.602;2022-12-29T10:48:32;64375.09;;;10.01;100.00
41636;BME280;27623;51.966;4.602;2022-12-29T10:51:00;64388.56;;;9.83;100.00
41636;BME280;27623;51.966;4.602;2022-12-29T10:53:52;64330.03;;;9.83;100.00
41636;BME280;27623;51.966;4.602;2022-12-29T10:56:25;64368.94;;;9.86;100.00
41636;BME280;27623;51.966;4.602;2022-12-29T10:58:55;64354.19;;;9.79;100.00
41636;BME280;27623;51.966;4.602;2022-12-29T11:01:24;64387.84;;;10.01;100.00
41636;BME280;27623;51.966;4.602;2022-12-29T11:04:03;64389.84;;;10.00;100.00
41636;BME280;27623;51.966;4.602;2022-12-29T11:06:34;64380.00;;;9.98;100.00
41636;BME280;27623;51.966;4.602;2022-12-29T11:09:08;64400.41;;;10.13;100.00
41636;BME280;27623;51.966;4.602;2022-12-29T11:11:36;64392.56;;;10.03;100.00
41636;BME280;27623;51.966;4.602;2022-12-29T11:14:12;64412.41;;;10.10;100.00
41636;BME280;27623;51.966;4.602;2022-12-29T11:16:40;64348.03;;;9.99;100.00
41636;BME280;27623;51.966;4.602;2022-12-29T11:19:20;64362.03;;;10.03;100.00
41636;BME280;27623;51.966;4.602;2022-12-29T11:21:46;64363.28;;;10.07;100.00
41636;BME280;27623;51.966;4.602;2022-12-29T11:24:22;64373.84;;;10.05;100.00
41636;BME280;27623;51.966;4.602;2022-12-29T11:26:53;64332.22;;;9.92;100.00
41636;BME280;27623;51.966;4.602;2022-12-29T11:29:24;64361.13;;;9.97;100.00
41636;BME280;27623;51.966;4.602;2022-12-29T11:31:58;64362.75;;;10.06;100.00
41636;BME280;27623;51.966;4.602;2022-12-29T11:34:30;64382.94;;;9.96;100.00
41636;BME280;27623;51.966;4.602;2022-12-29T11:37:05;64366.56;;;10.10;100.00
41636;BME280;27623;51.966;4.602;2022-12-29T11:42:16;64384.41;;;10.24;100.00
41636;BME280;27623;51.966;4.602;2022-12-29T11:44:45;64361.66;;;10.19;100.00
41636;BME280;27623;51.966;4.602;2022-12-29T11:47:34;64408.59;;;10.13;100.00
41636;BME280;27623;51.966;4.602;2022-12-29T11:50:03;64377.13;;;10.22;100.00
41636;BME280;27623;51.966;4.602;2022-12-29T11:52:32;64403.50;;;10.27;100.00
41636;BME280;27623;51.966;4.602;2022-12-29T11:55:02;64410.78;;;10.22;100.00
41636;BME280;27623;51.966;4.602;2022-12-29T11:57:28;64398.59;;;10.23;100.00
41636;BME280;27623;51.966;4.602;2022-12-29T11:59:55;64425.16;;;10.38;100.00
41636;BME280;27623;51.966;4.602;2022-12-29T12:02:38;64444.81;;;10.42;100.00
41636;BME280;27623;51.966;4.602;2022-12-29T12:05:46;64436.25;;;10.37;100.00
41636;BME280;27623;51.966;4.602;2022-12-29T12:13:43;64415.50;;;10.53;100.00
41636;BME280;27623;51.966;4.602;2022-12-29T12:19:50;64419.88;;;10.28;100.00
41636;BME280;27623;51.966;4.602;2022-12-29T12:22:20;64418.59;;;10.18;100.00
41636;BME280;27623;51.966;4.602;2022-12-29T12:25:00;64398.41;;;10.27;100.00
41636;BME280;27623;51.966;4.602;2022-12-29T12:35:14;64452.81;;;10.76;100.00
41636;BME280;27623;51.966;4.602;2022-12-29T12:37:57;64492.88;;;10.80;100.00
41636;BME280;27623;51.966;4.602;2022-12-29T12:40:48;64455.19;;;10.73;100.00
41636;BME280;27623;51.966;4.602;2022-12-29T12:43:36;64450.09;;;10.66;100.00
41636;BME280;27623;51.966;4.602;2022-12-29T12:51:43;64431.16;;;10.51;100.00
41636;BME280;27623;51.966;4.602;2022-12-29T12:54:35;64444.25;;;10.42;100.00
41636;BME280;27623;51.966;4.602;2022-12-29T13:00:13;64429.53;;;10.42;100.00
41636;BME280;27623;51.966;4.602;2022-12-29T13:10:47;64404.59;;;10.43;100.00
41636;BME280;27623;51.966;4.602;2022-12-29T13:16:25;64426.63;;;10.37;100.00
41636;BME280;27623;51.966;4.602;2022-12-29T13:25:14;64400.41;;;10.34;100.00
41636;BME280;27623;51.966;4.602;2022-12-29T13:27:34;64383.84;;;10.23;100.00
41636;BME280;27623;51.966;4.602;2022-12-29T13:30:17;64332.03;;;10.04;100.00
41636;BME280;27623;51.966;4.602;2022-12-29T13:32:53;64357.13;;;9.91;100.00
41636;BME280;27623;51.966;4.602;2022-12-29T13:35:51;64335.84;;;9.57;100.00
41636;BME280;27623;51.966;4.602;2022-12-29T13:41:13;64310.03;;;9.52;100.00
41636;BME280;27623;51.966;4.602;2022-12-29T13:43:42;64293.50;;;9.49;100.00
41636;BME280;27623;51.966;4.602;2022-12-29T13:46:12;64304.03;;;9.47;100.00
41636;BME280;27623;51.966;4.602;2022-12-29T13:49:02;64266.06;;;9.56;100.00
41636;BME280;27623;51.966;4.602;2022-12-29T13:51:31;64307.88;;;9.50;100.00
41636;BME280;27623;51.966;4.602;2022-12-29T13:56:28;64287.88;;;9.62;100.00
41636;BME280;27623;51.966;4.602;2022-12-29T13:59:12;64347.81;;;9.47;100.00
41636;BME280;27623;51.966;4.602;2022-12-29T14:02:00;64328.56;;;9.62;100.00
41636;BME280;27623;51.966;4.602;2022-12-29T14:04:29;64308.59;;;9.46;100.00
41636;BME280;27623;51.966;4.602;2022-12-29T14:07:15;64287.88;;;9.41;100.00
41636;BME280;27623;51.966;4.602;2022-12-29T14:09:55;64315.13;;;9.52;100.00
41636;BME280;27623;51.966;4.602;2022-12-29T14:15:14;64320.75;;;9.39;100.00
41636;BME280;27623;51.966;4.602;2022-12-29T14:18:01;64357.09;;;9.49;100.00
41636;BME280;27623;51.966;4.602;2022-12-29T14:20:27;64336.56;;;9.53;100.00
41636;BME280;27623;51.966;4.602;2022-12-29T14:28:27;64325.84;;;9.46;100.00
41636;BME280;27623;51.966;4.602;2022-12-29T14:30:54;64262.44;;;9.34;100.00
41636;BME280;27623;51.966;4.602;2022-12-29T14:33:21;64320.03;;;9.57;100.00
41636;BME280;27623;51.966;4.602;2022-12-29T14:35:48;64325.50;;;9.55;100.00
41636;BME280;27623;51.966;4.602;2022-12-29T14:38:23;64322.22;;;9.59;100.00
41636;BME280;27623;51.966;4.602;2022-12-29T14:40:49;64306.41;;;9.51;100.00
41636;BME280;27623;51.966;4.602;2022-12-29T14:43:21;64295.13;;;9.43;100.00
41636;BME280;27623;51.966;4.602;2022-12-29T14:45:59;64316.41;;;9.35;100.00
41636;BME280;27623;51.966;4.602;2022-12-29T14:48:42;64308.22;;;9.41;100.00
41636;BME280;27623;51.966;4.602;2022-12-29T14:51:21;64315.66;;;9.39;100.00